sensor_id;sensor_type;location;lat;lon;timestamp;pressure;altitude;pressure_sealevel;temperature;humidity
11343;BME280;5726;42.160;24.746;2023-01-27T00:00:08;98874.00;;;3.37;100.00
11343;BME280;5726;42.160;24.746;2023-01-27T00:02:36;98880.03;;;3.23;100.00
11343;BME280;5726;42.160;24.746;2023-01-27T00:05:01;98878.19;;;3.23;100.00
11343;BME280;5726;42.160;24.746;2023-01-27T00:07:27;98886.88;;;3.19;100.00
11343;BME280;5726;42.160;24.746;2023-01-27T00:09:52;98891.75;;;3.32;100.00
11343;BME280;5726;42.160;24.746;2023-01-27T00:12:21;98896.28;;;3.00;100.00
11343;BME280;5726;42.160;24.746;2023-01-27T00:15:06;98905.69;;;3.22;100.00
11343;BME280;5726;42.160;24.746;2023-01-27T00:17:32;98899.50;;;3.02;100.00
11343;BME280;5726;42.160;24.746;2023-01-27T00:19:58;98897.00;;;3.27;100.00
11343;BME280;5726;42.160;24.746;2023-01-27T00:22:24;98888.00;;;3.28;100.00
11343;BME280;5726;42.160;24.746;2023-01-27T00:25:08;98873.66;;;3.24;100.00
11343;BME280;5726;42.160;24.746;2023-01-27T00:27:33;98873.47;;;3.30;100.00
11343;BME280;5726;42.160;24.746;2023-01-27T00:29:59;98866.81;;;3.28;100.00
11343;BME280;5726;42.160;24.746;2023-01-27T00:32:24;98856.13;;;3.08;100.00
11343;BME280;5726;42.160;24.746;2023-01-27T00:35:08;98850.16;;;2.91;100.00
11343;BME280;5726;42.160;24.746;2023-01-27T00:37:33;98855.53;;;3.01;100.00
11343;BME280;5726;42.160;24.746;2023-01-27T00:39:59;98846.03;;;3.05;100.00
11343;BME280;5726;42.160;24.746;2023-01-27T00:42:24;98855.94;;;3.24;100.00
11343;BME280;5726;42.160;24.746;2023-01-27T00:44:50;98867.59;;;3.28;100.00
11343;BME280;5726;42.160;24.746;2023-01-27T00:47:34;98872.69;;;3.34;100.00
11343;BME280;5726;42.160;24.746;2023-01-27T00:49:59;98862.88;;;3.35;100.00
11343;BME280;5726;42.160;24.746;2023-01-27T00:52:25;98863.59;;;3.21;100.00
11343;BME280;5726;42.160;24.746;2023-01-27T00:54:50;98862.34;;;3.33;100.00
11343;BME280;5726;42.160;24.746;2023-01-27T00:57:16;98868.75;;;3.47;100.00
11343;BME280;5726;42.160;24.746;2023-01-27T00:59:41;98846.84;;;3.61;100.00
11343;BME280;5726;42.160;24.746;2023-01-27T01:02:07;98843.63;;;3.49;100.00
11343;BME280;5726;42.160;24.746;2023-01-27T01:04:32;98840.31;;;3.23;100.00
11343;BME280;5726;42.160;24.746;2023-01-27T01:06:57;98826.63;;;3.40;100.00
11343;BME280;5726;42.160;24.746;2023-01-27T01:09:23;98815.50;;;3.48;100.00
11343;BME280;5726;42.160;24.746;2023-01-27T01:11:48;98794.84;;;3.40;100.00
11343;BME280;5726;42.160;24.746;2023-01-27T01:14:14;98791.41;;;3.50;100.00
11343;BME280;5726;42.160;24.746;2023-01-27T01:16:39;98790.06;;;3.37;100.00
11343;BME280;5726;42.160;24.746;2023-01-27T01:19:05;98786.31;;;3.38;100.00
11343;BME280;5726;42.160;24.746;2023-01-27T01:21:30;98819.50;;;3.51;100.00
11343;BME280;5726;42.160;24.746;2023-01-27T01:23:56;98856.59;;;3.51;100.00
11343;BME280;5726;42.160;24.746;2023-01-27T01:26:21;98856.31;;;3.47;100.00
11343;BME280;5726;42.160;24.746;2023-01-27T01:28:47;98848.59;;;3.46;100.00
11343;BME280;5726;42.160;24.746;2023-01-27T01:31:17;98862.03;;;3.25;100.00
11343;BME280;5726;42.160;24.746;2023-01-27T01:33:43;98866.31;;;3.31;100.00
11343;BME280;5726;42.160;24.746;2023-01-27T01:36:12;98846.06;;;3.15;100.00
11343;BME280;5726;42.160;24.746;2023-01-27T01:38:37;98837.00;;;3.01;100.00
11343;BME280;5726;42.160;24.746;2023-01-27T01:41:04;98826.56;;;3.31;100.00
11343;BME280;5726;42.160;24.746;2023-01-27T01:43:30;98811.56;;;3.51;100.00
11343;BME280;5726;42.160;24.746;2023-01-27T01:45:57;98812.66;;;3.70;100.00
11343;BME280;5726;42.160;24.746;2023-01-27T01:50:58;98814.25;;;3.66;100.00
11343;BME280;5726;42.160;24.746;2023-01-27T01:53:29;98808.16;;;3.80;100.00
11343;BME280;5726;42.160;24.746;2023-01-27T01:56:00;98796.22;;;3.63;100.00
11343;BME280;5726;42.160;24.746;2023-01-27T01:58:29;98786.94;;;3.55;100.00
11343;BME280;5726;42.160;24.746;2023-01-27T02:00:55;98790.09;;;3.62;100.00
11343;BME280;5726;42.160;24.746;2023-01-27T02:03:22;98788.53;;;3.71;100.00
11343;BME280;5726;42.160;24.746;2023-01-27T02:05:51;98792.28;;;3.70;100.00
11343;BME280;5726;42.160;24.746;2023-01-27T02:08:30;98799.34;;;3.45;100.00
11343;BME280;5726;42.160;24.746;2023-01-27T02:10:58;98786.16;;;3.65;100.00
11343;BME280;5726;42.160;24.746;2023-01-27T02:13:23;98787.94;;;3.44;100.00
11343;BME280;5726;42.160;24.746;2023-01-27T02:15:51;98783.97;;;3.52;100.00
11343;BME280;5726;42.160;24.746;2023-01-27T02:18:17;98771.31;;;3.69;100.00
11343;BME280;5726;42.160;24.746;2023-01-27T02:20:48;98767.34;;;3.61;100.00
11343;BME280;5726;42.160;24.746;2023-01-27T02:29:07;98732.63;;;3.63;100.00
11343;BME280;5726;42.160;24.746;2023-01-27T02:31:33;98727.84;;;3.60;100.00
11343;BME280;5726;42.160;24.746;2023-01-27T02:34:01;98726.25;;;3.54;100.00
11343;BME280;5726;42.160;24.746;2023-01-27T02:36:31;98728.41;;;3.72;100.00
11343;BME280;5726;42.160;24.746;2023-01-27T02:38:59;98729.75;;;3.94;100.00
11343;BME280;5726;42.160;24.746;2023-01-27T02:41:33;98749.59;;;3.77;100.00
11343;BME280;5726;42.160;24.746;2023-01-27T02:43:59;98751.97;;;3.78;100.00
11343;BME280;5726;42.160;24.746;2023-01-27T02:46:25;98738.22;;;3.76;100.00
11343;BME280;5726;42.160;24.746;2023-01-27T02:48:51;98742.41;;;3.62;100.00
11343;BME280;5726;42.160;24.746;2023-01-27T02:51:16;98753.59;;;3.79;100.00
11343;BME280;5726;42.160;24.746;2023-01-27T02:53:42;98749.03;;;3.65;100.00
11343;BME280;5726;42.160;24.746;2023-01-27T02:56:09;98726.53;;;3.72;100.00
11343;BME280;5726;42.160;24.746;2023-01-27T02:58:35;98746.66;;;3.63;100.00
11343;BME280;5726;42.160;24.746;2023-01-27T03:01:00;98750.94;;;3.89;100.00
11343;BME280;5726;42.160;24.746;2023-01-27T03:03:26;98743.47;;;3.66;100.00
11343;BME280;5726;42.160;24.746;2023-01-27T03:05:51;98718.59;;;3.67;100.00
11343;BME280;5726;42.160;24.746;2023-01-27T03:08:17;98717.53;;;3.98;100.00
11343;BME280;5726;42.160;24.746;2023-01-27T03:10:48;98714.88;;;3.78;100.00
11343;BME280;5726;42.160;24.746;2023-01-27T03:13:13;98708.25;;;3.71;100.00
11343;BME280;5726;42.160;24.746;2023-01-27T03:15:38;98708.50;;;3.64;100.00
11343;BME280;5726;42.160;24.746;2023-01-27T03:18:22;98709.78;;;3.52;100.00
11343;BME280;5726;42.160;24.746;2023-01-27T03:20:48;98705.06;;;3.69;100.00
11343;BME280;5726;42.160;24.746;2023-01-27T03:23:18;98710.09;;;3.55;100.00
11343;BME280;5726;42.160;24.746;2023-01-27T03:25:45;98727.78;;;3.35;100.00
11343;BME280;5726;42.160;24.746;2023-01-27T03:28:12;98745.63;;;3.64;100.00
11343;BME280;5726;42.160;24.746;2023-01-27T03:30:38;98754.28;;;3.40;100.00
11343;BME280;5726;42.160;24.746;2023-01-27T03:33:04;98751.97;;;3.58;100.00
11343;BME280;5726;42.160;24.746;2023-01-27T03:35:31;98749.31;;;3.83;100.00
11343;BME280;5726;42.160;24.746;2023-01-27T03:38:09;98729.22;;;3.97;100.00
11343;BME280;5726;42.160;24.746;2023-01-27T03:40:54;98724.94;;;3.71;100.00
11343;BME280;5726;42.160;24.746;2023-01-27T03:43:38;98725.19;;;3.65;100.00
11343;BME280;5726;42.160;24.746;2023-01-27T03:46:22;98729.19;;;3.67;100.00
11343;BME280;5726;42.160;24.746;2023-01-27T03:48:53;98724.94;;;3.81;100.00
11343;BME280;5726;42.160;24.746;2023-01-27T03:51:23;98717.00;;;3.76;100.00
11343;BME280;5726;42.160;24.746;2023-01-27T03:53:49;98719.13;;;3.94;100.00
11343;BME280;5726;42.160;24.746;2023-01-27T03:56:15;98722.28;;;3.86;100.00
11343;BME280;5726;42.160;24.746;2023-01-27T03:58:41;98729.72;;;3.64;100.00
11343;BME280;5726;42.160;24.746;2023-01-27T04:03:39;98722.31;;;3.76;100.00
11343;BME280;5726;42.160;24.746;2023-01-27T04:06:28;98723.63;;;3.83;100.00
11343;BME280;5726;42.160;24.746;2023-01-27T04:09:17;98709.03;;;4.26;100.00
11343;BME280;5726;42.160;24.746;2023-01-27T04:11:43;98689.94;;;4.14;100.00
11343;BME280;5726;42.160;24.746;2023-01-27T04:14:36;98689.44;;;3.82;100.00
11343;BME280;5726;42.160;24.746;2023-01-27T04:17:09;98699.78;;;4.13;100.00
11343;BME280;5726;42.160;24.746;2023-01-27T04:19:36;98708.75;;;4.17;100.00
11343;BME280;5726;42.160;24.746;2023-01-27T04:22:01;98702.94;;;4.25;100.00
11343;BME280;5726;42.160;24.746;2023-01-27T04:24:28;98694.75;;;3.97;100.00
11343;BME280;5726;42.160;24.746;2023-01-27T04:26:56;98705.34;;;4.02;100.00
11343;BME280;5726;42.160;24.746;2023-01-27T04:29:25;98702.69;;;3.97;100.00
11343;BME280;5726;42.160;24.746;2023-01-27T04:31:50;98697.63;;;4.20;100.00
11343;BME280;5726;42.160;24.746;2023-01-27T04:34:16;98687.81;;;3.86;100.00
11343;BME280;5726;42.160;24.746;2023-01-27T04:36:42;98688.63;;;3.96;100.00
11343;BME280;5726;42.160;24.746;2023-01-27T04:39:08;98676.16;;;3.92;100.00
11343;BME280;5726;42.160;24.746;2023-01-27T04:41:35;98666.59;;;4.01;100.00
11343;BME280;5726;42.160;24.746;2023-01-27T04:44:01;98675.91;;;4.13;100.00
11343;BME280;5726;42.160;24.746;2023-01-27T04:46:27;98688.34;;;4.08;100.00
11343;BME280;5726;42.160;24.746;2023-01-27T04:48:52;98694.97;;;4.05;100.00
11343;BME280;5726;42.160;24.746;2023-01-27T04:51:18;98693.34;;;4.49;100.00
11343;BME280;5726;42.160;24.746;2023-01-27T04:53:43;98687.81;;;4.35;100.00
11343;BME280;5726;42.160;24.746;2023-01-27T04:56:34;98692.59;;;4.14;100.00
11343;BME280;5726;42.160;24.746;2023-01-27T04:59:02;98690.47;;;4.11;100.00
11343;BME280;5726;42.160;24.746;2023-01-27T05:01:28;98683.84;;;3.93;100.00
11343;BME280;5726;42.160;24.746;2023-01-27T05:03:54;98682.28;;;3.97;100.00
11343;BME280;5726;42.160;24.746;2023-01-27T05:06:20;98674.56;;;4.01;100.00
11343;BME280;5726;42.160;24.746;2023-01-27T05:08:46;98677.47;;;4.34;100.00
11343;BME280;5726;42.160;24.746;2023-01-27T05:11:11;98693.91;;;4.11;100.00
11343;BME280;5726;42.160;24.746;2023-01-27T05:13:37;98694.72;;;4.27;100.00
11343;BME280;5726;42.160;24.746;2023-01-27T05:16:14;98710.63;;;4.27;100.00
11343;BME280;5726;42.160;24.746;2023-01-27T05:18:40;98703.44;;;4.32;100.00
11343;BME280;5726;42.160;24.746;2023-01-27T05:21:07;98719.84;;;4.59;100.00
11343;BME280;5726;42.160;24.746;2023-01-27T05:23:35;98731.81;;;4.46;100.00
11343;BME280;5726;42.160;24.746;2023-01-27T05:26:12;98725.41;;;4.57;100.00
11343;BME280;5726;42.160;24.746;2023-01-27T05:28:40;98725.47;;;4.47;100.00
11343;BME280;5726;42.160;24.746;2023-01-27T05:33:35;98721.47;;;4.55;100.00
11343;BME280;5726;42.160;24.746;2023-01-27T05:36:02;98717.25;;;4.34;100.00
11343;BME280;5726;42.160;24.746;2023-01-27T05:38:28;98724.41;;;4.33;100.00
11343;BME280;5726;42.160;24.746;2023-01-27T05:40:55;98728.63;;;4.49;100.00
11343;BME280;5726;42.160;24.746;2023-01-27T05:43:21;98722.81;;;4.27;100.00
11343;BME280;5726;42.160;24.746;2023-01-27T05:45:46;98723.31;;;4.49;100.00
11343;BME280;5726;42.160;24.746;2023-01-27T05:48:12;98715.34;;;4.54;100.00
11343;BME280;5726;42.160;24.746;2023-01-27T05:50:37;98718.56;;;4.36;100.00
11343;BME280;5726;42.160;24.746;2023-01-27T05:53:02;98724.66;;;4.32;100.00
11343;BME280;5726;42.160;24.746;2023-01-27T05:55:28;98723.63;;;4.23;100.00
11343;BME280;5726;42.160;24.746;2023-01-27T05:57:53;98731.84;;;4.41;100.00
11343;BME280;5726;42.160;24.746;2023-01-27T06:00:19;98716.16;;;4.45;100.00
11343;BME280;5726;42.160;24.746;2023-01-27T06:02:45;98718.06;;;4.20;100.00
11343;BME280;5726;42.160;24.746;2023-01-27T06:05:10;98715.94;;;4.12;100.00
11343;BME280;5726;42.160;24.746;2023-01-27T06:07:35;98723.84;;;4.51;100.00
11343;BME280;5726;42.160;24.746;2023-01-27T06:10:01;98725.88;;;4.84;100.00
11343;BME280;5726;42.160;24.746;2023-01-27T06:12:26;98711.56;;;4.75;100.00
11343;BME280;5726;42.160;24.746;2023-01-27T06:14:52;98699.78;;;5.54;100.00
11343;BME280;5726;42.160;24.746;2023-01-27T06:17:19;98699.06;;;5.38;100.00
11343;BME280;5726;42.160;24.746;2023-01-27T06:19:44;98696.16;;;5.35;100.00
11343;BME280;5726;42.160;24.746;2023-01-27T06:22:10;98702.44;;;5.06;100.00
11343;BME280;5726;42.160;24.746;2023-01-27T06:24:35;98706.63;;;5.17;100.00
11343;BME280;5726;42.160;24.746;2023-01-27T06:27:01;98718.78;;;5.32;100.00
11343;BME280;5726;42.160;24.746;2023-01-27T06:29:26;98720.44;;;5.14;100.00
11343;BME280;5726;42.160;24.746;2023-01-27T06:31:51;98726.47;;;4.71;100.00
11343;BME280;5726;42.160;24.746;2023-01-27T06:34:17;98725.91;;;4.69;100.00
11343;BME280;5726;42.160;24.746;2023-01-27T06:36:42;98727.03;;;4.58;100.00
11343;BME280;5726;42.160;24.746;2023-01-27T06:39:08;98730.66;;;4.87;100.00
11343;BME280;5726;42.160;24.746;2023-01-27T06:41:34;98723.47;;;4.92;100.00
11343;BME280;5726;42.160;24.746;2023-01-27T06:43:59;98725.41;;;4.67;100.00
11343;BME280;5726;42.160;24.746;2023-01-27T06:46:25;98727.28;;;4.57;100.00
11343;BME280;5726;42.160;24.746;2023-01-27T06:48:50;98721.69;;;4.68;100.00
11343;BME280;5726;42.160;24.746;2023-01-27T06:51:15;98712.94;;;4.73;100.00
11343;BME280;5726;42.160;24.746;2023-01-27T06:53:41;98720.06;;;4.77;100.00
11343;BME280;5726;42.160;24.746;2023-01-27T06:56:06;98711.06;;;4.63;100.00
11343;BME280;5726;42.160;24.746;2023-01-27T06:58:32;98718.53;;;4.51;100.00
11343;BME280;5726;42.160;24.746;2023-01-27T07:00:57;98711.06;;;4.68;100.00
11343;BME280;5726;42.160;24.746;2023-01-27T07:03:23;98720.94;;;4.58;100.00
11343;BME280;5726;42.160;24.746;2023-01-27T07:05:49;98719.06;;;4.53;100.00
11343;BME280;5726;42.160;24.746;2023-01-27T07:08:14;98717.97;;;4.64;100.00
11343;BME280;5726;42.160;24.746;2023-01-27T07:10:40;98723.72;;;4.96;100.00
11343;BME280;5726;42.160;24.746;2023-01-27T07:13:10;98731.13;;;5.04;100.00
11343;BME280;5726;42.160;24.746;2023-01-27T07:15:37;98722.69;;;4.87;100.00
11343;BME280;5726;42.160;24.746;2023-01-27T07:18:03;98727.50;;;4.75;100.00
11343;BME280;5726;42.160;24.746;2023-01-27T07:20:29;98733.88;;;4.74;100.00
11343;BME280;5726;42.160;24.746;2023-01-27T07:22:58;98729.88;;;4.81;100.00
11343;BME280;5726;42.160;24.746;2023-01-27T07:25:24;98733.56;;;4.95;100.00
11343;BME280;5726;42.160;24.746;2023-01-27T07:27:50;98732.75;;;4.95;100.00
11343;BME280;5726;42.160;24.746;2023-01-27T07:30:16;98734.94;;;4.83;100.00
11343;BME280;5726;42.160;24.746;2023-01-27T07:32:42;98735.16;;;4.91;100.00
11343;BME280;5726;42.160;24.746;2023-01-27T07:35:07;98734.94;;;4.73;100.00
11343;BME280;5726;42.160;24.746;2023-01-27T07:37:33;98724.56;;;4.81;100.00
11343;BME280;5726;42.160;24.746;2023-01-27T07:39:58;98731.47;;;4.87;100.00
11343;BME280;5726;42.160;24.746;2023-01-27T07:42:23;98727.84;;;5.21;100.00
11343;BME280;5726;42.160;24.746;2023-01-27T07:44:49;98723.63;;;5.16;100.00
11343;BME280;5726;42.160;24.746;2023-01-27T07:47:14;98730.03;;;5.10;100.00
11343;BME280;5726;42.160;24.746;2023-01-27T07:49:40;98716.25;;;5.51;100.00
11343;BME280;5726;42.160;24.746;2023-01-27T07:52:05;98725.94;;;5.80;100.00
11343;BME280;5726;42.160;24.746;2023-01-27T07:54:31;98715.91;;;5.67;100.00
11343;BME280;5726;42.160;24.746;2023-01-27T07:56:58;98708.16;;;5.32;100.00
11343;BME280;5726;42.160;24.746;2023-01-27T07:59:24;98706.00;;;5.34;100.00
11343;BME280;5726;42.160;24.746;2023-01-27T08:01:50;98707.13;;;5.23;100.00
11343;BME280;5726;42.160;24.746;2023-01-27T08:04:18;98715.06;;;5.28;100.00
11343;BME280;5726;42.160;24.746;2023-01-27T08:06:43;98716.50;;;5.59;100.00
11343;BME280;5726;42.160;24.746;2023-01-27T08:09:09;98707.69;;;5.59;100.00
11343;BME280;5726;42.160;24.746;2023-01-27T08:11:34;98719.78;;;5.36;100.00
11343;BME280;5726;42.160;24.746;2023-01-27T08:14:00;98711.81;;;5.41;100.00
11343;BME280;5726;42.160;24.746;2023-01-27T08:16:26;98718.19;;;5.40;100.00
11343;BME280;5726;42.160;24.746;2023-01-27T08:18:52;98717.75;;;5.23;100.00
11343;BME280;5726;42.160;24.746;2023-01-27T08:21:18;98718.84;;;5.13;100.00
11343;BME280;5726;42.160;24.746;2023-01-27T08:23:43;98717.31;;;5.02;100.00
11343;BME280;5726;42.160;24.746;2023-01-27T08:26:09;98708.59;;;4.96;100.00
11343;BME280;5726;42.160;24.746;2023-01-27T08:28:36;98703.50;;;5.05;100.00
11343;BME280;5726;42.160;24.746;2023-01-27T08:31:11;98694.94;;;5.18;100.00
11343;BME280;5726;42.160;24.746;2023-01-27T08:33:38;98684.59;;;5.16;100.00
11343;BME280;5726;42.160;24.746;2023-01-27T08:36:07;98673.34;;;5.29;100.00
11343;BME280;5726;42.160;24.746;2023-01-27T08:38:33;98664.69;;;5.09;100.00
11343;BME280;5726;42.160;24.746;2023-01-27T08:41:02;98670.72;;;5.24;100.00
11343;BME280;5726;42.160;24.746;2023-01-27T08:43:28;98665.13;;;5.25;100.00
11343;BME280;5726;42.160;24.746;2023-01-27T08:45:53;98666.19;;;5.24;100.00
11343;BME280;5726;42.160;24.746;2023-01-27T08:48:20;98668.78;;;5.34;100.00
11343;BME280;5726;42.160;24.746;2023-01-27T08:50:46;98675.63;;;5.50;100.00
11343;BME280;5726;42.160;24.746;2023-01-27T08:53:12;98672.69;;;5.47;100.00
11343;BME280;5726;42.160;24.746;2023-01-27T08:55:37;98681.84;;;5.69;100.00
11343;BME280;5726;42.160;24.746;2023-01-27T08:58:03;98689.53;;;5.32;100.00
11343;BME280;5726;42.160;24.746;2023-01-27T09:00:29;98687.63;;;5.43;100.00
11343;BME280;5726;42.160;24.746;2023-01-27T09:02:54;98691.84;;;5.49;100.00
11343;BME280;5726;42.160;24.746;2023-01-27T09:05:19;98696.09;;;5.45;100.00
11343;BME280;5726;42.160;24.746;2023-01-27T09:07:46;98690.47;;;5.56;100.00
11343;BME280;5726;42.160;24.746;2023-01-27T09:10:13;98686.69;;;5.62;100.00
11343;BME280;5726;42.160;24.746;2023-01-27T09:12:40;98682.38;;;5.76;100.00
11343;BME280;5726;42.160;24.746;2023-01-27T09:15:06;98684.66;;;5.49;100.00
11343;BME280;5726;42.160;24.746;2023-01-27T09:17:31;98681.66;;;5.56;100.00
11343;BME280;5726;42.160;24.746;2023-01-27T09:19:57;98687.56;;;5.48;100.00
11343;BME280;5726;42.160;24.746;2023-01-27T09:22:22;98681.06;;;5.25;100.00
11343;BME280;5726;42.160;24.746;2023-01-27T09:24:48;98683.72;;;5.25;100.00
11343;BME280;5726;42.160;24.746;2023-01-27T09:27:13;98670.25;;;5.55;100.00
11343;BME280;5726;42.160;24.746;2023-01-27T09:29:38;98669.66;;;5.25;100.00
11343;BME280;5726;42.160;24.746;2023-01-27T09:32:04;98653.75;;;5.58;100.00
11343;BME280;5726;42.160;24.746;2023-01-27T09:34:30;98652.25;;;5.47;100.00
11343;BME280;5726;42.160;24.746;2023-01-27T09:37:02;98652.78;;;5.44;100.00
11343;BME280;5726;42.160;24.746;2023-01-27T09:39:31;98644.25;;;5.85;100.00
11343;BME280;5726;42.160;24.746;2023-01-27T09:42:11;98634.34;;;5.58;100.00
11343;BME280;5726;42.160;24.746;2023-01-27T09:45:02;98625.91;;;5.51;100.00
11343;BME280;5726;42.160;24.746;2023-01-27T09:47:49;98631.22;;;5.84;100.00
11343;BME280;5726;42.160;24.746;2023-01-27T09:50:38;98624.91;;;5.75;100.00
11343;BME280;5726;42.160;24.746;2023-01-27T09:59:01;98628.53;;;5.89;100.00
11343;BME280;5726;42.160;24.746;2023-01-27T10:01:45;98633.25;;;5.59;100.00
11343;BME280;5726;42.160;24.746;2023-01-27T10:07:54;98642.81;;;5.98;100.00
11343;BME280;5726;42.160;24.746;2023-01-27T10:21:50;98621.50;;;6.03;100.00
11343;BME280;5726;42.160;24.746;2023-01-27T10:26:51;98621.97;;;6.10;100.00
11343;BME280;5726;42.160;24.746;2023-01-27T10:31:57;98598.53;;;6.12;100.00
11343;BME280;5726;42.160;24.746;2023-01-27T10:34:30;98597.53;;;6.03;100.00
11343;BME280;5726;42.160;24.746;2023-01-27T10:39:50;98586.56;;;6.09;100.00
11343;BME280;5726;42.160;24.746;2023-01-27T10:45:09;98591.66;;;6.06;100.00
11343;BME280;5726;42.160;24.746;2023-01-27T10:48:02;98582.84;;;6.10;100.00
11343;BME280;5726;42.160;24.746;2023-01-27T10:50:38;98578.44;;;5.96;100.00
11343;BME280;5726;42.160;24.746;2023-01-27T10:53:09;98567.84;;;6.19;100.00
11343;BME280;5726;42.160;24.746;2023-01-27T10:58:52;98559.00;;;6.23;100.00
11343;BME280;5726;42.160;24.746;2023-01-27T11:01:28;98567.88;;;6.37;100.00
11343;BME280;5726;42.160;24.746;2023-01-27T11:06:42;98556.44;;;6.37;100.00
11343;BME280;5726;42.160;24.746;2023-01-27T11:09:16;98553.88;;;6.32;100.00
11343;BME280;5726;42.160;24.746;2023-01-27T11:11:46;98548.41;;;6.42;100.00
11343;BME280;5726;42.160;24.746;2023-01-27T11:14:32;98539.56;;;6.46;100.00
11343;BME280;5726;42.160;24.746;2023-01-27T11:17:18;98533.00;;;6.39;100.00
11343;BME280;5726;42.160;24.746;2023-01-27T11:20:05;98528.91;;;6.46;100.00
11343;BME280;5726;42.160;24.746;2023-01-27T11:22:49;98511.81;;;6.89;100.00
11343;BME280;5726;42.160;24.746;2023-01-27T11:25:28;98526.84;;;7.16;100.00
11343;BME280;5726;42.160;24.746;2023-01-27T11:31:29;98532.59;;;7.23;100.00
11343;BME280;5726;42.160;24.746;2023-01-27T11:36:51;98535.63;;;6.80;100.00
11343;BME280;5726;42.160;24.746;2023-01-27T11:39:17;98548.09;;;6.85;100.00
11343;BME280;5726;42.160;24.746;2023-01-27T11:41:53;98540.41;;;7.02;100.00
11343;BME280;5726;42.160;24.746;2023-01-27T11:44:31;98546.00;;;6.82;100.00
11343;BME280;5726;42.160;24.746;2023-01-27T11:46:58;98541.97;;;6.66;100.00
11343;BME280;5726;42.160;24.746;2023-01-27T11:49:34;98535.00;;;6.88;100.00
11343;BME280;5726;42.160;24.746;2023-01-27T11:52:08;98535.44;;;6.77;100.00
11343;BME280;5726;42.160;24.746;2023-01-27T11:57:28;98520.16;;;7.01;100.00
11343;BME280;5726;42.160;24.746;2023-01-27T11:59:59;98527.94;;;6.79;100.00
11343;BME280;5726;42.160;24.746;2023-01-27T12:02:29;98527.00;;;7.07;100.00
11343;BME280;5726;42.160;24.746;2023-01-27T12:05:16;98523.41;;;6.79;100.00
11343;BME280;5726;42.160;24.746;2023-01-27T12:07:56;98516.94;;;6.85;100.00
11343;BME280;5726;42.160;24.746;2023-01-27T12:10:32;98529.94;;;7.05;100.00
11343;BME280;5726;42.160;24.746;2023-01-27T12:13:08;98530.69;;;7.11;100.00
11343;BME280;5726;42.160;24.746;2023-01-27T12:15:35;98522.41;;;6.57;100.00
11343;BME280;5726;42.160;24.746;2023-01-27T12:18:13;98518.88;;;6.62;100.00
11343;BME280;5726;42.160;24.746;2023-01-27T12:20:44;98520.59;;;6.71;100.00
11343;BME280;5726;42.160;24.746;2023-01-27T12:23:26;98512.47;;;6.81;100.00
11343;BME280;5726;42.160;24.746;2023-01-27T12:25:56;98507.94;;;6.81;100.00
11343;BME280;5726;42.160;24.746;2023-01-27T12:28:23;98508.31;;;6.75;100.00
11343;BME280;5726;42.160;24.746;2023-01-27T12:30:51;98497.72;;;6.88;100.00
11343;BME280;5726;42.160;24.746;2023-01-27T12:33:28;98498.66;;;6.97;100.00
11343;BME280;5726;42.160;24.746;2023-01-27T12:35:58;98495.03;;;7.07;100.00
11343;BME280;5726;42.160;24.746;2023-01-27T12:38:27;98492.59;;;7.23;100.00
11343;BME280;5726;42.160;24.746;2023-01-27T12:41:06;98498.47;;;7.25;100.00
11343;BME280;5726;42.160;24.746;2023-01-27T12:43:49;98498.19;;;7.09;100.00
11343;BME280;5726;42.160;24.746;2023-01-27T12:48:48;98492.28;;;7.12;100.00
11343;BME280;5726;42.160;24.746;2023-01-27T12:51:19;98499.88;;;7.05;100.00
11343;BME280;5726;42.160;24.746;2023-01-27T12:53:47;98492.28;;;7.12;100.00
11343;BME280;5726;42.160;24.746;2023-01-27T12:56:21;98496.44;;;7.17;100.00
11343;BME280;5726;42.160;24.746;2023-01-27T13:01:22;98499.97;;;7.31;100.00
11343;BME280;5726;42.160;24.746;2023-01-27T13:04:17;98495.94;;;7.15;100.00
11343;BME280;5726;42.160;24.746;2023-01-27T13:06:53;98499.00;;;6.91;100.00
11343;BME280;5726;42.160;24.746;2023-01-27T13:09:26;98497.97;;;7.05;100.00
11343;BME280;5726;42.160;24.746;2023-01-27T13:11:56;98496.47;;;6.99;100.00
11343;BME280;5726;42.160;24.746;2023-01-27T13:14:22;98486.44;;;7.10;100.00
11343;BME280;5726;42.160;24.746;2023-01-27T13:16:53;98492.50;;;7.15;100.00
11343;BME280;5726;42.160;24.746;2023-01-27T13:19:19;98488.03;;;7.11;100.00
11343;BME280;5726;42.160;24.746;2023-01-27T13:21:51;98501.94;;;7.39;100.00
11343;BME280;5726;42.160;24.746;2023-01-27T13:24:27;98491.16;;;7.31;100.00
11343;BME280;5726;42.160;24.746;2023-01-27T13:26:56;98492.69;;;7.50;100.00
11343;BME280;5726;42.160;24.746;2023-01-27T13:29:27;98486.50;;;7.23;100.00
11343;BME280;5726;42.160;24.746;2023-01-27T13:32:26;98497.00;;;7.14;100.00
11343;BME280;5726;42.160;24.746;2023-01-27T13:35:15;98507.28;;;7.08;100.00
11343;BME280;5726;42.160;24.746;2023-01-27T13:37:47;98507.97;;;7.31;100.00
11343;BME280;5726;42.160;24.746;2023-01-27T13:40:38;98504.38;;;7.22;100.00
11343;BME280;5726;42.160;24.746;2023-01-27T13:46:26;98490.28;;;7.04;100.00
11343;BME280;5726;42.160;24.746;2023-01-27T13:48:54;98487.69;;;6.80;100.00
11343;BME280;5726;42.160;24.746;2023-01-27T13:51:22;98494.59;;;7.18;100.00
11343;BME280;5726;42.160;24.746;2023-01-27T13:54:11;98496.63;;;7.39;100.00
11343;BME280;5726;42.160;24.746;2023-01-27T14:07:25;98530.94;;;7.27;100.00
11343;BME280;5726;42.160;24.746;2023-01-27T14:10:03;98524.41;;;7.20;100.00
11343;BME280;5726;42.160;24.746;2023-01-27T14:16:04;98526.56;;;7.00;100.00
11343;BME280;5726;42.160;24.746;2023-01-27T14:31:22;98526.50;;;7.05;100.00
11343;BME280;5726;42.160;24.746;2023-01-27T14:36:51;98526.56;;;7.00;100.00
11343;BME280;5726;42.160;24.746;2023-01-27T14:42:00;98514.63;;;6.97;100.00
11343;BME280;5726;42.160;24.746;2023-01-27T14:44:35;98514.97;;;6.91;100.00
11343;BME280;5726;42.160;24.746;2023-01-27T14:47:13;98516.13;;;6.85;100.00
11343;BME280;5726;42.160;24.746;2023-01-27T14:52:23;98524.34;;;7.07;100.00
11343;BME280;5726;42.160;24.746;2023-01-27T14:58:26;98532.13;;;6.85;100.00